Time;durP1;ratioP1;P1;durP2;ratioP2;P2;SDS_P1;SDS_P2;PMS_P1;PMS_P2;Temp;Humidity;BMP_temperature;BMP_pressure;BME280_temperature;BME280_humidity;BME280_pressure;Samples;Min_cycle;Max_cycle;Signal;HPM_P1;HPM_P2
2022/10/01 00:02:13;;;;;;;6.73;4.57;;;;;;;13.96;100.00;100360.80;1453570;90;21296;-78
2022/10/01 00:04:39;;;;;;;8.10;4.93;;;;;;;13.98;100.00;100360.97;1427755;91;21436;-78
2022/10/01 00:07:09;;;;;;;6.70;4.73;;;;;;;14.03;100.00;100364.93;1436078;90;21392;-77
2022/10/01 00:09:34;;;;;;;8.40;4.30;;;;;;;14.05;100.00;100366.93;1438885;90;21303;-78
2022/10/01 00:12:00;;;;;;;9.93;4.87;;;;;;;14.05;100.00;100369.08;1450527;90;21481;-78
2022/10/01 00:14:27;;;;;;;8.67;4.50;;;;;;;14.04;100.00;100366.11;1436594;90;21583;-78
2022/10/01 00:16:53;;;;;;;7.17;4.43;;;;;;;14.07;100.00;100362.24;1450901;90;22206;-78
2022/10/01 00:19:20;;;;;;;6.17;4.27;;;;;;;14.08;100.00;100361.27;1442838;90;21436;-78
2022/10/01 00:21:46;;;;;;;5.63;4.20;;;;;;;14.08;100.00;100354.61;1455213;89;21341;-78
2022/10/01 00:24:13;;;;;;;8.03;4.00;;;;;;;14.08;100.00;100358.60;1440331;90;21480;-77
2022/10/01 00:26:40;;;;;;;4.80;3.47;;;;;;;14.09;100.00;100353.59;1438714;90;21566;-78
2022/10/01 00:29:13;;;;;;;5.87;3.97;;;;;;;14.10;100.00;100356.09;1452587;90;21413;-78
2022/10/01 00:31:40;;;;;;;5.80;3.87;;;;;;;14.12;100.00;100357.23;1449467;90;22213;-77
2022/10/01 00:34:08;;;;;;;6.50;4.17;;;;;;;14.12;100.00;100362.56;1422775;90;21573;-77
2022/10/01 00:36:34;;;;;;;13.00;4.77;;;;;;;14.13;100.00;100361.58;1343790;90;21326;-78
2022/10/01 00:39:01;;;;;;;14.97;4.33;;;;;;;14.11;100.00;100354.27;1415902;90;21392;-77
2022/10/01 00:41:33;;;;;;;4.67;3.63;;;;;;;14.11;100.00;100360.91;1444857;90;21342;-77
2022/10/01 00:44:36;;;;;;;5.23;3.60;;;;;;;14.10;100.00;100365.92;1429817;90;21422;-77
2022/10/01 00:47:26;;;;;;;5.63;4.10;;;;;;;14.07;100.00;100348.94;1429097;90;21422;-78
2022/10/01 00:49:57;;;;;;;10.50;5.33;;;;;;;14.05;100.00;100350.96;1441767;90;21392;-79
2022/10/01 00:52:27;;;;;;;4.27;3.83;;;;;;;13.97;100.00;100348.64;1448887;89;21480;-77
2022/10/01 00:55:08;;;;;;;7.83;3.95;;;;;;;13.88;100.00;100328.39;1445251;89;21466;-78
2022/10/01 00:57:35;;;;;;;6.37;4.15;;;;;;;13.85;100.00;100326.08;1441046;90;21498;-79
2022/10/01 01:00:04;;;;;;;6.83;3.53;;;;;;;13.86;100.00;100325.57;1434663;90;22316;-79
2022/10/01 01:02:31;;;;;;;4.75;3.58;;;;;;;13.87;100.00;100329.91;1430557;90;21645;-78
2022/10/01 01:04:58;;;;;;;4.70;3.33;;;;;;;13.86;100.00;100319.75;1442950;90;22264;-78
2022/10/01 01:07:25;;;;;;;11.53;4.30;;;;;;;13.87;100.00;100314.77;1447038;90;21349;-79
2022/10/01 01:09:54;;;;;;;12.80;3.57;;;;;;;13.83;100.00;100309.95;1439149;90;22345;-79
2022/10/01 01:12:34;;;;;;;7.73;3.60;;;;;;;13.79;100.00;100304.16;1446067;90;21244;-78
2022/10/01 01:15:24;;;;;;;6.83;4.50;;;;;;;13.81;100.00;100309.29;1397864;93;21547;-78
2022/10/01 01:18:29;;;;;;;8.70;5.33;;;;;;;13.80;100.00;100309.80;1438047;90;21393;-78
2022/10/01 01:21:13;;;;;;;9.57;4.87;;;;;;;13.76;100.00;100319.13;1443847;90;21492;-78
2022/10/01 01:24:19;;;;;;;7.90;5.13;;;;;;;13.74;100.00;100315.80;1450973;90;21302;-78
2022/10/01 01:27:27;;;;;;;7.20;4.87;;;;;;;13.73;100.00;100320.80;1449788;89;21392;-78
2022/10/01 01:30:05;;;;;;;7.80;3.90;;;;;;;13.76;100.00;100329.27;1431642;90;22257;-78
2022/10/01 01:33:08;;;;;;;5.90;3.90;;;;;;;13.78;100.00;100339.72;1437307;90;21340;-79
2022/10/01 01:35:42;;;;;;;8.03;5.03;;;;;;;13.83;100.00;100337.38;1445333;90;22545;-78
2022/10/01 01:38:20;;;;;;;8.97;4.23;;;;;;;13.87;100.00;100334.73;1436898;90;22243;-78
2022/10/01 01:40:51;;;;;;;6.53;4.97;;;;;;;13.92;100.00;100334.20;1427678;90;22258;-78
2022/10/01 01:43:22;;;;;;;6.43;4.23;;;;;;;13.94;100.00;100326.38;1434928;90;21355;-78
2022/10/01 01:45:53;;;;;;;10.25;4.78;;;;;;;13.94;100.00;100317.06;1448205;90;21422;-77
2022/10/01 01:48:23;;;;;;;8.43;4.53;;;;;;;13.96;100.00;100309.75;1449819;89;22037;-78
2022/10/01 01:50:57;;;;;;;8.67;4.57;;;;;;;13.97;100.00;100311.90;1444878;89;21414;-77
2022/10/01 01:53:25;;;;;;;7.00;5.17;;;;;;;13.97;100.00;100308.73;1427336;89;23447;-77
2022/10/01 01:55:52;;;;;;;6.93;4.60;;;;;;;13.99;100.00;100307.24;1431028;90;21289;-77
2022/10/01 01:58:19;;;;;;;8.27;5.03;;;;;;;13.99;100.00;100300.09;1431661;90;21348;-77
2022/10/01 02:00:51;;;;;;;8.70;5.53;;;;;;;14.03;100.00;100301.06;1437376;90;21230;-78
2022/10/01 02:03:22;;;;;;;6.90;4.67;;;;;;;14.05;100.00;100292.42;1429922;90;21466;-77
2022/10/01 02:06:12;;;;;;;6.93;5.07;;;;;;;14.06;100.00;100292.73;1452916;90;21384;-77
2022/10/01 02:08:56;;;;;;;11.55;4.42;;;;;;;14.05;100.00;100293.24;1438126;90;21568;-77
2022/10/01 02:11:29;;;;;;;8.03;4.70;;;;;;;14.03;100.00;100315.70;1443176;90;21273;-77
2022/10/01 02:14:13;;;;;;;7.40;4.83;;;;;;;13.95;100.00;100317.41;1442294;90;21415;-77
2022/10/01 02:16:47;;;;;;;7.30;4.40;;;;;;;13.84;100.00;100322.25;1442901;89;21325;-77
2022/10/01 02:19:40;;;;;;;5.73;3.70;;;;;;;13.77;100.00;100324.77;1448435;90;21392;-77
2022/10/01 02:22:13;;;;;;;4.73;3.63;;;;;;;13.75;100.00;100321.44;1437922;90;21426;-77
2022/10/01 02:24:48;;;;;;;5.77;4.23;;;;;;;13.80;100.00;100319.11;1451937;90;22243;-77
2022/10/01 02:27:31;;;;;;;6.30;3.93;;;;;;;13.85;100.00;100335.39;1430817;90;21385;-77
2022/10/01 02:30:01;;;;;;;4.93;4.00;;;;;;;13.92;100.00;100323.55;1448802;89;22198;-77
2022/10/01 02:32:30;;;;;;;6.58;3.92;;;;;;;13.96;100.00;100303.09;1450137;90;21369;-77
2022/10/01 02:34:58;;;;;;;8.00;4.43;;;;;;;13.99;100.00;100305.91;1424621;90;21422;-76
2022/10/01 02:37:26;;;;;;;5.40;3.70;;;;;;;14.00;100.00;100295.08;1452606;90;21407;-76
2022/10/01 02:39:55;;;;;;;8.30;4.10;;;;;;;14.02;100.00;100279.47;1454416;90;21459;-76
2022/10/01 02:42:25;;;;;;;5.60;3.50;;;;;;;14.03;100.00;100273.12;1450093;90;21599;-77
2022/10/01 02:44:53;;;;;;;5.10;3.55;;;;;;;14.02;100.00;100274.14;1431116;89;21667;-77
2022/10/01 02:47:32;;;;;;;7.07;3.87;;;;;;;13.99;100.00;100277.47;1438037;90;21528;-77
2022/10/01 02:49:56;;;;;;;6.20;3.60;;;;;;;13.98;100.00;100277.16;1435791;89;21459;-77
2022/10/01 02:52:43;;;;;;;6.17;3.87;;;;;;;13.98;100.00;100285.13;1435764;90;21370;-77
2022/10/01 02:55:17;;;;;;;5.10;4.50;;;;;;;13.97;100.00;100271.48;1425165;90;22191;-76
2022/10/01 02:57:44;;;;;;;5.43;3.37;;;;;;;13.98;100.00;100273.16;1432925;90;22561;-77
2022/10/01 03:00:15;;;;;;;5.73;3.93;;;;;;;14.00;100.00;100261.82;1421726;90;21341;-77
2022/10/01 03:02:41;;;;;;;6.33;3.27;;;;;;;14.01;100.00;100258.66;1433945;90;21407;-77
2022/10/01 03:05:08;;;;;;;3.93;3.50;;;;;;;13.99;100.00;100258.84;1439349;90;22227;-77
2022/10/01 03:07:35;;;;;;;4.97;3.60;;;;;;;13.97;100.00;100248.87;1444338;90;21355;-77
2022/10/01 03:10:03;;;;;;;17.17;3.30;;;;;;;13.93;100.00;100264.04;1426916;90;22368;-77
2022/10/01 03:12:29;;;;;;;6.83;4.00;;;;;;;13.93;100.00;100268.86;1426892;90;21533;-77
2022/10/01 03:14:56;;;;;;;4.13;3.30;;;;;;;13.94;100.00;100254.54;1448663;90;22507;-77
2022/10/01 03:17:22;;;;;;;5.70;3.60;;;;;;;13.95;100.00;100259.35;1449188;90;21444;-77
2022/10/01 03:19:48;;;;;;;5.10;3.83;;;;;;;13.91;100.00;100267.36;1431706;91;21547;-78
2022/10/01 03:22:22;;;;;;;4.73;3.50;;;;;;;13.87;100.00;100262.91;1431273;91;22943;-78
2022/10/01 03:24:52;;;;;;;6.70;4.37;;;;;;;13.86;100.00;100257.23;1427853;91;21399;-77
2022/10/01 03:27:22;;;;;;;5.47;3.30;;;;;;;13.83;100.00;100248.27;1424610;91;21615;-77
2022/10/01 03:29:48;;;;;;;4.93;3.30;;;;;;;13.81;100.00;100239.66;1443013;90;21481;-77
2022/10/01 03:32:15;;;;;;;10.90;3.63;;;;;;;13.83;100.00;100238.13;1452174;90;21519;-77
2022/10/01 03:34:41;;;;;;;5.27;2.70;;;;;;;13.86;100.00;100233.29;1449946;90;21562;-77
2022/10/01 03:37:07;;;;;;;7.77;3.20;;;;;;;13.89;100.00;100233.45;1454710;90;21339;-77
2022/10/01 03:39:33;;;;;;;3.00;2.70;;;;;;;13.92;100.00;100216.63;1451383;90;21384;-78
2022/10/01 03:42:00;;;;;;;4.03;2.43;;;;;;;13.97;100.00;100213.45;1455269;90;21324;-77
2022/10/01 03:44:27;;;;;;;5.20;2.47;;;;;;;13.99;100.00;100211.45;1443136;90;21414;-77
2022/10/01 03:46:53;;;;;;;4.63;2.87;;;;;;;14.00;100.00;100216.59;1428508;91;21547;-76
2022/10/01 03:49:20;;;;;;;3.53;2.77;;;;;;;13.99;100.00;100217.60;1453307;90;21564;-77
2022/10/01 03:51:46;;;;;;;8.00;3.67;;;;;;;13.96;100.00;100233.92;1445030;90;22324;-77
2022/10/01 03:54:12;;;;;;;6.33;3.30;;;;;;;13.85;100.00;100252.92;1454192;90;21553;-77
2022/10/01 03:56:41;;;;;;;3.53;3.23;;;;;;;13.71;100.00;100286.38;1446089;89;22282;-77
2022/10/01 03:59:08;;;;;;;4.67;3.03;;;;;;;13.54;100.00;100322.82;1441799;90;21992;-77
2022/10/01 04:01:34;;;;;;;4.27;2.90;;;;;;;13.46;100.00;100338.78;1443758;90;21510;-77
2022/10/01 04:04:01;;;;;;;3.00;2.70;;;;;;;13.41;100.00;100333.17;1447904;90;21356;-77
2022/10/01 04:06:27;;;;;;;5.87;3.53;;;;;;;13.44;100.00;100314.22;1426198;90;21370;-77
2022/10/01 04:08:53;;;;;;;6.47;3.53;;;;;;;13.44;100.00;100322.20;1437983;90;22294;-77
2022/10/01 04:11:19;;;;;;;9.90;3.20;;;;;;;13.46;100.00;100326.82;1450265;89;21429;-77
2022/10/01 04:13:45;;;;;;;6.47;3.57;;;;;;;13.46;100.00;100318.84;1433729;90;21370;-77
2022/10/01 04:16:11;;;;;;;4.80;2.93;;;;;;;13.52;100.00;100306.70;1425688;90;21377;-77
2022/10/01 04:18:37;;;;;;;4.83;3.03;;;;;;;13.54;100.00;100304.21;1435630;90;21341;-77
2022/10/01 04:21:04;;;;;;;3.53;3.03;;;;;;;13.57;100.00;100303.55;1440717;90;21432;-77
2022/10/01 04:23:30;;;;;;;8.37;3.23;;;;;;;13.58;100.00;100318.02;1439886;90;21547;-77
2022/10/01 04:26:04;;;;;;;5.67;3.20;;;;;;;13.57;100.00;100320.83;1458276;90;22318;-76
2022/10/01 04:28:31;;;;;;;5.80;3.40;;;;;;;13.57;100.00;100330.14;1426693;90;22321;-77
2022/10/01 04:33:42;;;;;;;7.63;3.63;;;;;;;13.47;100.00;100340.47;1429028;90;21378;-75
2022/10/01 04:36:07;;;;;;;4.87;3.03;;;;;;;13.44;100.00;100340.80;1450159;88;23614;-75
2022/10/01 04:38:34;;;;;;;8.67;3.03;;;;;;;13.42;100.00;100345.45;1445250;90;21939;-75
2022/10/01 04:41:00;;;;;;;5.13;3.70;;;;;;;13.43;100.00;100343.11;1457550;90;21391;-76
2022/10/01 04:43:26;;;;;;;11.80;3.90;;;;;;;13.42;100.00;100348.11;1455388;90;22052;-76
2022/10/01 04:45:52;;;;;;;8.27;3.90;;;;;;;13.46;100.00;100353.91;1460255;90;21347;-76
2022/10/01 04:48:18;;;;;;;5.07;3.70;;;;;;;13.49;100.00;100357.09;1452783;90;22610;-76
2022/10/01 04:50:44;;;;;;;6.10;4.23;;;;;;;13.56;100.00;100358.56;1447464;89;21693;-76
2022/10/01 04:53:10;;;;;;;4.97;4.17;;;;;;;13.63;100.00;100366.19;1446974;90;21399;-75
2022/10/01 04:55:37;;;;;;;5.10;3.90;;;;;;;13.68;100.00;100372.34;1451979;90;21443;-76
2022/10/01 04:58:03;;;;;;;6.60;4.13;;;;;;;13.70;100.00;100371.17;1440653;90;21598;-76
2022/10/01 05:00:29;;;;;;;4.90;3.43;;;;;;;13.75;100.00;100378.15;1448876;89;21384;-75
2022/10/01 05:02:55;;;;;;;4.17;3.77;;;;;;;13.78;100.00;100382.27;1447654;89;22545;-75
2022/10/01 05:05:23;;;;;;;6.27;4.70;;;;;;;13.82;100.00;100388.11;1446622;90;21385;-76
2022/10/01 05:07:49;;;;;;;7.83;3.77;;;;;;;13.85;100.00;100377.13;1427025;90;21362;-76
2022/10/01 05:10:19;;;;;;;5.87;4.70;;;;;;;13.90;100.00;100378.78;1429630;91;21408;-76
2022/10/01 05:12:47;;;;;;;7.62;4.40;;;;;;;13.93;100.00;100380.59;1450993;90;21363;-76
2022/10/01 05:15:15;;;;;;;6.27;5.50;;;;;;;13.97;100.00;100380.58;1444060;90;21355;-76
2022/10/01 05:17:41;;;;;;;6.57;5.07;;;;;;;13.99;100.00;100378.58;1427372;90;21267;-75
2022/10/01 05:20:19;;;;;;;5.17;4.67;;;;;;;13.97;100.00;100376.58;1429937;90;21407;-75
2022/10/01 05:22:46;;;;;;;7.27;5.13;;;;;;;14.03;100.00;100373.73;1425964;90;21400;-75
2022/10/01 05:25:13;;;;;;;6.43;5.47;;;;;;;14.02;100.00;100385.90;1440420;90;21465;-76
2022/10/01 05:27:39;;;;;;;8.03;4.60;;;;;;;14.02;100.00;100380.58;1448296;90;21349;-75
2022/10/01 05:30:09;;;;;;;6.03;5.07;;;;;;;14.08;100.00;100371.91;1444367;90;22251;-75
2022/10/01 05:32:36;;;;;;;7.30;4.30;;;;;;;14.13;100.00;100370.90;1431567;89;21334;-75
2022/10/01 05:35:05;;;;;;;7.43;5.07;;;;;;;14.19;100.00;100355.56;1439950;90;21414;-75
2022/10/01 05:37:31;;;;;;;18.60;12.43;;;;;;;14.13;100.00;100366.91;1434290;90;21298;-75
2022/10/01 05:39:57;;;;;;;9.53;6.93;;;;;;;14.10;100.00;100370.73;1441419;90;22213;-76
2022/10/01 05:42:23;;;;;;;7.07;5.43;;;;;;;14.13;100.00;100349.09;1450121;90;21437;-76
2022/10/01 05:44:49;;;;;;;10.47;5.93;;;;;;;14.14;100.00;100365.39;1452871;90;22301;-75
2022/10/01 05:47:19;;;;;;;7.67;5.80;;;;;;;14.08;100.00;100375.39;1443325;88;21355;-75
2022/10/01 05:49:45;;;;;;;11.33;5.57;;;;;;;14.12;100.00;100358.06;1433165;90;21412;-75
2022/10/01 05:52:14;;;;;;;10.03;5.23;;;;;;;14.14;100.00;100368.55;1437913;91;21944;-74
2022/10/01 05:54:40;;;;;;;12.47;5.10;;;;;;;14.14;100.00;100362.72;1433079;90;21325;-75
2022/10/01 05:57:07;;;;;;;6.47;5.03;;;;;;;14.20;100.00;100355.87;1427617;89;21392;-76
2022/10/01 05:59:35;;;;;;;5.60;5.00;;;;;;;14.24;100.00;100379.81;1439266;90;22265;-76
2022/10/01 06:02:02;;;;;;;10.13;5.30;;;;;;;14.28;100.00;100381.14;1453546;90;21333;-75
2022/10/01 06:04:29;;;;;;;6.33;4.27;;;;;;;14.31;100.00;100368.81;1450926;90;21356;-74
2022/10/01 06:06:55;;;;;;;6.47;5.23;;;;;;;14.36;100.00;100373.13;1444675;90;21346;-75
2022/10/01 06:09:21;;;;;;;10.60;5.37;;;;;;;14.43;100.00;100370.59;1420503;90;21392;-75
2022/10/01 06:11:47;;;;;;;6.67;5.27;;;;;;;14.50;100.00;100368.91;1426447;90;21326;-76
2022/10/01 06:14:14;;;;;;;8.57;5.30;;;;;;;14.54;100.00;100356.09;1449289;90;21391;-75
2022/10/01 06:16:40;;;;;;;10.97;5.90;;;;;;;14.59;100.00;100343.08;1439714;90;21548;-75
2022/10/01 06:19:06;;;;;;;7.60;6.10;;;;;;;14.64;100.00;100335.37;1438187;90;21341;-75
2022/10/01 06:21:32;;;;;;;14.93;7.40;;;;;;;14.64;100.00;100335.37;1449176;90;22458;-75
2022/10/01 06:23:59;;;;;;;10.90;6.27;;;;;;;14.63;100.00;100339.05;1445226;89;21466;-75
2022/10/01 06:26:29;;;;;;;;;;;;;;;14.61;100.00;100322.41;1446471;90;21356;-76
2022/10/01 06:28:55;;;;;;;9.17;4.63;;;;;;;14.60;100.00;100313.59;1430071;90;20292;-75
2022/10/01 06:31:22;;;;;;;7.03;5.27;;;;;;;14.61;100.00;100311.25;1434026;91;21400;-75
2022/10/01 06:33:48;;;;;;;5.50;4.50;;;;;;;14.66;100.00;100322.72;1444170;90;22123;-76
2022/10/01 06:36:14;;;;;;;9.60;4.17;;;;;;;14.68;100.00;100322.05;1427873;91;21385;-75
2022/10/01 06:38:41;;;;;;;5.10;4.60;;;;;;;14.72;100.00;100318.52;1438909;90;21371;-75
2022/10/01 06:41:09;;;;;;;5.43;4.67;;;;;;;14.77;100.00;100322.31;1454013;90;21370;-75
2022/10/01 06:43:35;;;;;;;10.63;6.90;;;;;;;14.85;100.00;100318.77;1451703;90;22305;-75
2022/10/01 06:46:03;;;;;;;8.60;5.47;;;;;;;14.91;100.00;100310.56;1448342;89;21422;-75
2022/10/01 06:48:30;;;;;;;9.20;5.77;;;;;;;14.97;100.00;100309.84;1449368;90;21348;-75
2022/10/01 06:50:57;;;;;;;13.90;8.47;;;;;;;15.01;100.00;100307.13;1444419;90;21377;-75
2022/10/01 06:53:26;;;;;;;7.93;3.93;;;;;;;15.09;100.00;100292.41;1436258;90;21252;-75
2022/10/01 06:55:52;;;;;;;4.23;3.53;;;;;;;15.17;100.00;100289.68;1433169;90;21370;-75
2022/10/01 06:58:21;;;;;;;7.60;4.30;;;;;;;15.29;100.00;100290.89;1452207;90;21443;-76
2022/10/01 07:00:48;;;;;;;7.27;3.97;;;;;;;15.46;100.00;100286.22;1434731;90;21355;-75
2022/10/01 07:03:19;;;;;;;4.10;3.63;;;;;;;15.71;100.00;100292.67;1440717;90;22295;-76
2022/10/01 07:05:45;;;;;;;;;;;;;;;15.90;100.00;100279.25;1429437;91;21510;-76
2022/10/01 07:08:12;;;;;;;4.13;3.73;;;;;;;16.07;100.00;100273.20;1439000;90;20293;-76
2022/10/01 07:10:39;;;;;;;6.27;3.53;;;;;;;16.24;100.00;100276.79;1433673;89;22288;-74
2022/10/01 07:13:08;;;;;;;5.83;4.47;;;;;;;16.36;100.00;100270.45;1426539;91;21510;-75
2022/10/01 07:15:38;;;;;;;4.15;3.72;;;;;;;16.49;100.00;100272.45;1444472;90;21428;-76
2022/10/01 07:18:07;;;;;;;9.87;4.07;;;;;;;16.59;100.00;100283.63;1442166;90;21333;-75
2022/10/01 07:20:38;;;;;;;6.30;3.67;;;;;;;16.68;100.00;100285.16;1428408;90;21378;-76
2022/10/01 07:23:01;;;;;;;5.47;4.00;;;;;;;16.79;100.00;100290.53;1424636;91;22531;-76
2022/10/01 07:25:28;;;;;;;6.87;3.00;;;;;;;16.92;100.00;100283.16;1444002;88;21266;-75
2022/10/01 07:27:57;;;;;;;2.57;2.10;;;;;;;17.01;100.00;100282.00;1451723;88;22300;-76
2022/10/01 07:30:25;;;;;;;3.53;2.83;;;;;;;17.08;100.00;100280.19;1462086;88;21383;-76
2022/10/01 07:32:51;;;;;;;4.23;3.47;;;;;;;17.17;100.00;100276.05;1450590;89;22455;-76
2022/10/01 07:35:19;;;;;;;9.13;2.87;;;;;;;17.23;100.00;100271.25;1458602;88;22553;-76
2022/10/01 07:37:48;;;;;;;3.10;2.40;;;;;;;17.30;100.00;100266.79;1450544;90;22472;-77
2022/10/01 07:40:15;;;;;;;4.28;2.55;;;;;;;17.36;100.00;100274.03;1444524;90;21538;-76
2022/10/01 07:42:43;;;;;;;3.52;1.87;;;;;;;17.45;100.00;100263.48;1438309;90;21570;-76
2022/10/01 07:45:10;;;;;;;2.62;1.85;;;;;;;17.60;100.00;100268.20;1435091;90;22235;-76
2022/10/01 07:47:36;;;;;;;2.50;2.20;;;;;;;17.79;100.00;100265.87;1456785;90;21325;-76
2022/10/01 07:50:05;;;;;;;5.28;2.33;;;;;;;18.00;100.00;100267.08;1432741;90;21378;-75
2022/10/01 07:52:31;;;;;;;10.75;2.12;;;;;;;18.12;100.00;100274.55;1427555;91;21628;-75
2022/10/01 07:54:57;;;;;;;3.22;1.75;;;;;;;18.23;100.00;100277.98;1449514;88;22073;-76
2022/10/01 07:57:23;;;;;;;2.55;1.90;;;;;;;18.28;100.00;100280.89;1453351;88;21406;-74
2022/10/01 07:59:49;;;;;;;5.78;2.15;;;;;;;18.26;96.91;100282.94;1452567;88;22543;-76
2022/10/01 08:02:17;;;;;;;3.95;1.80;;;;;;;18.30;98.28;100276.66;1453616;88;21428;-76
2022/10/01 08:07:30;;;;;;;10.28;5.50;;;;;;;18.25;96.91;100293.35;1457534;88;22647;-76
2022/10/01 08:09:57;;;;;;;4.15;2.87;;;;;;;18.13;94.92;100298.46;1471580;88;21356;-75
2022/10/01 08:12:26;;;;;;;8.60;2.20;;;;;;;18.04;95.64;100309.86;1473433;88;21415;-76
2022/10/01 08:14:51;;;;;;;3.42;2.50;;;;;;;17.95;95.61;100296.33;1445578;88;21784;-76
2022/10/01 08:17:17;;;;;;;4.67;2.72;;;;;;;17.90;96.61;100289.40;1433117;88;21487;-75
2022/10/01 08:19:43;;;;;;;5.20;3.05;;;;;;;17.88;97.17;100297.31;1441504;89;21384;-76
2022/10/01 08:22:11;;;;;;;3.08;2.37;;;;;;;17.78;97.23;100307.03;1425584;90;22805;-76
2022/10/01 08:24:37;;;;;;;3.90;2.45;;;;;;;17.69;97.81;100302.83;1428711;90;23208;-76
2022/10/01 08:27:03;;;;;;;6.25;3.22;;;;;;;17.64;98.04;100314.14;1419317;90;21554;-76
2022/10/01 08:29:29;;;;;;;3.62;2.42;;;;;;;17.62;98.31;100312.69;1414355;91;21446;-75
2022/10/01 08:31:57;;;;;;;9.08;3.10;;;;;;;17.53;98.64;100303.47;1409454;91;21302;-75
2022/10/01 08:34:23;;;;;;;11.78;3.90;;;;;;;17.50;98.53;100301.19;1381887;91;21398;-76
2022/10/01 08:36:53;;;;;;;10.13;5.78;;;;;;;17.49;99.00;100302.70;1401383;91;21492;-76
2022/10/01 08:39:19;;;;;;;9.55;7.17;;;;;;;17.46;99.22;100289.20;1417329;91;22214;-76
2022/10/01 08:42:14;;;;;;;11.00;6.92;;;;;;;17.44;99.43;100277.07;1415793;92;21512;-76
2022/10/01 08:44:45;;;;;;;8.10;3.98;;;;;;;17.42;99.77;100267.89;1405161;93;21541;-76
2022/10/01 08:47:31;;;;;;;11.97;3.90;;;;;;;17.40;100.00;100265.91;1424343;91;21546;-76
2022/10/01 08:50:11;;;;;;;7.05;4.55;;;;;;;17.42;100.00;100254.52;1449641;88;21697;-76
2022/10/01 08:52:43;;;;;;;8.58;3.70;;;;;;;17.42;100.00;100259.86;1443086;89;21464;-75
2022/10/01 08:55:14;;;;;;;8.73;3.90;;;;;;;17.41;100.00;100265.43;1451528;89;22478;-76
2022/10/01 08:57:52;;;;;;;6.37;4.17;;;;;;;17.40;100.00;100260.56;1453274;89;22322;-76
2022/10/01 09:00:18;;;;;;;6.55;3.70;;;;;;;17.42;100.00;100257.19;1439579;89;21546;-74
2022/10/01 09:02:46;;;;;;;5.67;4.03;;;;;;;17.39;100.00;100240.20;1410065;89;21555;-76
2022/10/01 09:05:23;;;;;;;8.80;4.12;;;;;;;17.40;100.00;100250.37;1437440;90;21561;-76
2022/10/01 09:08:21;;;;;;;7.92;4.50;;;;;;;17.42;100.00;100244.33;1431724;91;21488;-75
2022/10/01 09:10:53;;;;;;;6.37;5.28;;;;;;;17.43;100.00;100258.02;1425559;91;21702;-75
2022/10/01 09:13:45;;;;;;;4.50;4.10;;;;;;;17.41;100.00;100249.38;1436110;90;21347;-75
2022/10/01 09:16:26;;;;;;;8.30;4.30;;;;;;;17.42;100.00;100245.16;1439533;89;21329;-76
2022/10/01 09:19:07;;;;;;;10.40;4.07;;;;;;;17.42;100.00;100243.81;1443474;89;21582;-75
2022/10/01 09:21:50;;;;;;;6.83;3.52;;;;;;;17.45;100.00;100248.77;1452005;90;22349;-76
2022/10/01 09:24:39;;;;;;;8.50;3.22;;;;;;;17.48;100.00;100249.71;1429467;91;22324;-75
2022/10/01 09:27:19;;;;;;;5.17;3.45;;;;;;;17.52;100.00;100248.80;1433284;90;21326;-75
2022/10/01 09:29:52;;;;;;;7.85;3.37;;;;;;;17.62;100.00;100248.46;1441062;89;21465;-75
2022/10/01 09:32:23;;;;;;;10.65;3.50;;;;;;;17.74;100.00;100233.48;1430941;90;21922;-74
2022/10/01 09:34:51;;;;;;;3.92;3.15;;;;;;;17.83;100.00;100237.66;1451780;88;21509;-75
2022/10/01 09:37:38;;;;;;;7.28;3.52;;;;;;;17.91;100.00;100232.14;1431001;89;21317;-74
2022/10/01 09:40:22;;;;;;;8.25;2.77;;;;;;;17.99;100.00;100233.31;1439996;90;21444;-75
2022/10/01 09:42:50;;;;;;;6.15;3.00;;;;;;;18.05;100.00;100230.34;1439898;89;21555;-74
2022/10/01 09:45:21;;;;;;;6.97;3.10;;;;;;;18.10;100.00;100215.84;1425728;91;21788;-75
2022/10/01 09:47:49;;;;;;;4.10;2.70;;;;;;;18.27;100.00;100220.31;1427885;90;21465;-75
2022/10/01 09:50:33;;;;;;;11.78;4.87;;;;;;;18.36;97.96;100221.77;1433142;91;21587;-75
2022/10/01 09:53:01;;;;;;;6.62;3.52;;;;;;;18.59;100.00;100217.37;1429934;90;21363;-76
2022/10/01 09:55:43;;;;;;;9.08;4.25;;;;;;;18.74;97.90;100213.17;1442961;88;21363;-77
2022/10/01 09:58:19;;;;;;;9.55;4.28;;;;;;;18.85;95.17;100217.92;1459811;90;21386;-76
2022/10/01 10:00:51;;;;;;;10.55;4.20;;;;;;;18.91;92.80;100218.95;1430836;88;21444;-77
2022/10/01 10:03:30;;;;;;;8.30;4.28;;;;;;;19.05;94.59;100211.72;1436566;90;22083;-76
2022/10/01 10:05:58;;;;;;;7.97;3.87;;;;;;;19.16;94.28;100219.95;1516345;90;21362;-76
2022/10/01 10:08:30;;;;;;;14.18;6.03;;;;;;;19.27;92.85;100218.99;1367772;90;21185;-76
2022/10/01 10:11:04;;;;;;;8.05;4.50;;;;;;;19.37;93.09;100213.51;1460136;90;21966;-75
2022/10/01 10:13:50;;;;;;;12.10;4.30;;;;;;;19.39;91.08;100207.42;1447187;89;21429;-75
2022/10/01 10:16:25;;;;;;;10.68;3.08;;;;;;;19.36;90.79;100194.43;1429614;91;21407;-76
2022/10/01 10:18:52;;;;;;;9.45;3.50;;;;;;;19.35;91.17;100207.52;1432108;90;21584;-76
2022/10/01 10:21:33;;;;;;;16.05;5.17;;;;;;;19.36;91.05;100199.80;1374301;90;21236;-76
2022/10/01 10:24:06;;;;;;;17.20;6.17;;;;;;;19.50;90.84;100193.03;1532203;89;21186;-76
2022/10/01 10:26:36;;;;;;;7.60;3.77;;;;;;;19.82;90.77;100190.78;1532514;90;21149;-75
2022/10/01 10:29:07;;;;;;;6.72;3.52;;;;;;;20.04;88.05;100179.17;1517724;90;21207;-74
2022/10/01 10:31:43;;;;;;;;;;;;;;;20.03;86.48;100175.38;1375216;88;21362;-75
2022/10/01 10:34:33;;;;;;;9.50;4.62;;;;;;;20.10;85.89;100170.77;1453586;89;20382;-75
2022/10/01 10:37:04;;;;;;;10.20;5.17;;;;;;;20.17;85.50;100166.20;1420344;89;21514;-76
2022/10/01 10:39:35;;;;;;;7.83;3.90;;;;;;;20.15;85.30;100169.61;1439239;89;21568;-75
2022/10/01 10:42:04;;;;;;;8.55;4.35;;;;;;;20.27;83.98;100177.80;1452883;89;22551;-76
2022/10/01 10:44:37;;;;;;;8.70;4.20;;;;;;;20.42;85.14;100173.45;1338089;93;21223;-76
2022/10/01 10:47:08;;;;;;;10.23;4.05;;;;;;;20.71;81.94;100180.91;1410199;92;21373;-76
2022/10/01 10:49:49;;;;;;;10.10;4.35;;;;;;;20.93;82.19;100173.77;1455518;88;21375;-76
2022/10/01 10:52:29;;;;;;;8.10;4.35;;;;;;;21.27;82.00;100167.02;1401635;93;21436;-76
2022/10/01 10:54:58;;;;;;;10.72;4.60;;;;;;;21.23;79.17;100165.80;1399662;92;21365;-76
2022/10/01 10:57:31;;;;;;;9.63;4.40;;;;;;;21.01;77.10;100170.80;1445464;88;21308;-77
2022/10/01 11:00:17;;;;;;;10.98;4.65;;;;;;;20.73;77.37;100164.02;1378434;89;22375;-77
2022/10/01 11:02:58;;;;;;;14.75;5.03;;;;;;;20.58;78.65;100159.51;1525204;89;21259;-76
2022/10/01 11:05:28;;;;;;;14.40;6.17;;;;;;;20.39;79.45;100161.27;1441427;90;22272;-76
2022/10/01 11:07:59;;;;;;;10.68;5.20;;;;;;;20.28;80.33;100151.22;1427147;90;21449;-76
2022/10/01 11:10:53;;;;;;;10.90;4.60;;;;;;;20.13;81.00;100142.13;1433516;90;22368;-76
2022/10/01 11:13:45;;;;;;;10.72;5.60;;;;;;;20.04;81.26;100134.85;1435206;89;22448;-83
2022/10/01 11:16:36;;;;;;;13.40;5.35;;;;;;;19.89;81.33;100135.68;1443239;89;21362;-81
2022/10/01 11:19:34;;;;;;;7.08;4.70;;;;;;;19.75;82.03;100148.34;1424014;91;21613;-82
2022/10/01 11:22:18;;;;;;;9.00;3.92;;;;;;;19.63;82.82;100148.70;1438042;90;21281;-81
2022/10/01 11:25:17;;;;;;;12.90;5.37;;;;;;;19.48;84.33;100129.34;1450752;90;21993;-81
2022/10/01 11:28:02;;;;;;;6.58;4.47;;;;;;;19.47;84.88;100127.17;1437210;89;22279;-82
2022/10/01 11:30:43;;;;;;;12.70;4.97;;;;;;;19.43;85.67;100124.63;1426901;91;21421;-82
2022/10/01 11:33:56;;;;;;;7.35;5.33;;;;;;;19.42;86.41;100114.09;1432499;91;21517;-81
2022/10/01 11:36:54;;;;;;;12.33;7.12;;;;;;;19.41;87.24;100097.70;1445966;90;21355;-81
2022/10/01 11:39:24;;;;;;;17.07;7.90;;;;;;;19.44;87.48;100081.98;1425804;91;21600;-81
2022/10/01 11:42:13;;;;;;;17.75;8.63;;;;;;;19.39;87.62;100079.95;1449787;90;22571;-81
2022/10/01 11:45:00;;;;;;;11.12;6.72;;;;;;;19.42;87.81;100083.23;1446895;89;22404;-82